createdAt,value
2019-02-02T00:00:18.942Z,16.20
2019-02-02T00:02:51.603Z,16.67
2019-02-02T00:05:24.278Z,17.27
2019-02-02T00:07:57.194Z,17.63
2019-02-02T00:10:29.898Z,16.50
2019-02-02T00:13:03.461Z,17.10
2019-02-02T00:15:36.144Z,16.63
2019-02-02T00:18:08.806Z,15.97
2019-02-02T00:20:41.486Z,16.20
2019-02-02T00:23:14.165Z,15.37
2019-02-02T00:25:46.846Z,16.33
2019-02-02T00:28:19.595Z,16.20
2019-02-02T00:30:52.266Z,16.83
2019-02-02T00:33:24.926Z,17.30
2019-02-02T00:35:58.238Z,17.73
2019-02-02T00:38:30.911Z,18.20
2019-02-02T00:41:03.599Z,17.60
2019-02-02T00:43:38.371Z,17.97
2019-02-02T00:46:10.679Z,18.03
2019-02-02T00:48:43.339Z,18.37
2019-02-02T00:51:16.059Z,19.53
2019-02-02T00:53:49.015Z,19.50
2019-02-02T00:56:21.690Z,19.07
2019-02-02T00:59:04.916Z,19.47
2019-02-02T01:01:37.571Z,18.17
2019-02-02T01:04:10.471Z,18.33
2019-02-02T01:06:43.130Z,18.00
2019-02-02T01:09:15.769Z,18.63
2019-02-02T01:11:48.432Z,18.30
2019-02-02T01:14:21.091Z,17.07
2019-02-02T01:16:54.086Z,16.73
2019-02-02T01:19:26.735Z,17.83
2019-02-02T01:21:59.390Z,16.67
2019-02-02T01:24:32.055Z,17.37
2019-02-02T01:27:05.007Z,16.53
2019-02-02T01:29:37.646Z,16.73
2019-02-02T01:32:10.319Z,17.53
2019-02-02T01:34:42.980Z,18.97
2019-02-02T01:37:15.639Z,18.63
2019-02-02T01:39:48.335Z,19.17
2019-02-02T01:42:21.280Z,17.47
2019-02-02T01:44:53.926Z,18.40
2019-02-02T01:47:26.608Z,17.83
2019-02-02T01:49:59.255Z,17.23
2019-02-02T01:52:31.919Z,18.27
2019-02-02T01:55:05.861Z,19.33
2019-02-02T01:57:38.517Z,17.30
2019-02-02T02:00:14.071Z,17.37
2019-02-02T02:02:47.110Z,18.47
2019-02-02T02:05:21.063Z,17.93
2019-02-02T02:07:53.727Z,17.67
2019-02-02T02:10:26.390Z,18.03
2019-02-02T02:12:59.385Z,17.47
2019-02-02T02:15:32.065Z,17.33
2019-02-02T02:18:04.834Z,18.37
2019-02-02T02:20:37.503Z,18.40
2019-02-02T02:23:10.154Z,17.70
2019-02-02T02:25:42.875Z,19.00
2019-02-02T02:28:15.515Z,17.50
2019-02-02T02:30:48.163Z,17.20
2019-02-02T02:33:20.991Z,16.13
2019-02-02T02:35:53.710Z,16.53
2019-02-02T02:38:27.064Z,17.60
2019-02-02T02:40:59.711Z,18.67
2019-02-02T02:43:32.490Z,19.57
2019-02-02T02:46:05.147Z,20.90
2019-02-02T02:48:38.213Z,20.17
2019-02-02T02:51:11.171Z,20.33
2019-02-02T02:53:43.811Z,20.10
2019-02-02T02:56:16.559Z,24.53
2019-02-02T02:58:49.192Z,23.50
2019-02-02T03:01:22.141Z,21.93
2019-02-02T03:03:54.815Z,22.60
2019-02-02T03:06:27.446Z,22.17
2019-02-02T03:09:00.359Z,23.50
2019-02-02T03:11:33.302Z,23.83
2019-02-02T03:14:05.958Z,23.87
2019-02-02T03:16:38.703Z,23.93
2019-02-02T03:19:11.338Z,22.10
2019-02-02T03:21:44.802Z,22.77
2019-02-02T03:24:17.453Z,23.03
2019-02-02T03:26:50.160Z,22.10
2019-02-02T03:29:23.179Z,22.37
2019-02-02T03:31:55.847Z,20.53
2019-02-02T03:34:28.502Z,22.53
2019-02-02T03:37:01.158Z,21.50
2019-02-02T03:39:34.145Z,19.77
2019-02-02T03:42:06.794Z,18.90
2019-02-02T03:44:39.706Z,19.90
2019-02-02T03:47:12.360Z,19.70
2019-02-02T03:49:45.015Z,19.97
2019-02-02T03:52:17.694Z,20.43
2019-02-02T03:54:50.635Z,19.17
2019-02-02T03:57:23.297Z,20.27
2019-02-02T03:59:55.955Z,20.13
2019-02-02T04:02:28.650Z,20.20
2019-02-02T04:05:01.306Z,20.53
2019-02-02T04:07:34.310Z,19.50
2019-02-02T04:10:07.772Z,20.40
2019-02-02T04:12:40.457Z,19.53
2019-02-02T04:15:14.987Z,20.07
2019-02-02T04:17:47.643Z,20.63
2019-02-02T04:20:21.127Z,22.03
2019-02-02T04:22:53.783Z,20.73
2019-02-02T04:25:26.431Z,20.90
2019-02-02T04:27:59.105Z,21.73
2019-02-02T04:30:31.771Z,23.67
2019-02-02T04:33:04.473Z,21.60
2019-02-02T04:35:37.202Z,21.03
2019-02-02T04:38:09.888Z,21.83
2019-02-02T04:40:42.525Z,22.60
2019-02-02T04:43:15.194Z,21.77
2019-02-02T04:45:47.842Z,22.13
2019-02-02T04:48:20.498Z,22.63
2019-02-02T04:50:53.142Z,20.97
2019-02-02T04:53:25.801Z,21.97
2019-02-02T04:55:58.443Z,21.97
2019-02-02T04:58:31.147Z,22.60
2019-02-02T05:01:03.790Z,22.07
2019-02-02T05:03:36.451Z,20.60
2019-02-02T05:06:09.102Z,21.93
2019-02-02T05:08:41.776Z,19.97
2019-02-02T05:11:14.449Z,22.13
2019-02-02T05:13:47.412Z,21.73
2019-02-02T05:16:20.098Z,21.13
2019-02-02T05:18:52.843Z,20.93
2019-02-02T05:21:25.503Z,21.67
2019-02-02T05:23:58.167Z,19.10
2019-02-02T05:26:30.814Z,20.30
2019-02-02T05:29:03.547Z,20.63
2019-02-02T05:31:36.208Z,19.87
2019-02-02T05:34:08.907Z,19.13
2019-02-02T05:36:41.581Z,19.70
2019-02-02T05:39:14.872Z,19.93
2019-02-02T05:41:47.556Z,18.97
2019-02-02T05:44:20.245Z,20.03
2019-02-02T05:46:53.476Z,20.33
2019-02-02T05:49:26.131Z,20.43
2019-02-02T05:51:58.836Z,20.03
2019-02-02T05:54:31.831Z,19.30
2019-02-02T05:57:04.494Z,19.47
2019-02-02T05:59:37.409Z,19.97
2019-02-02T06:02:10.096Z,19.10
2019-02-02T06:04:42.755Z,19.57
2019-02-02T06:07:15.970Z,17.50
2019-02-02T06:09:48.943Z,19.07
2019-02-02T06:12:21.603Z,19.43
2019-02-02T06:14:54.286Z,20.43
2019-02-02T06:17:26.951Z,18.93
2019-02-02T06:19:59.998Z,17.80
2019-02-02T06:22:32.643Z,18.43
2019-02-02T06:25:06.812Z,18.10
2019-02-02T06:27:39.462Z,18.73
2019-02-02T06:30:14.517Z,18.07
2019-02-02T06:32:47.162Z,17.23
2019-02-02T06:35:21.470Z,18.30
2019-02-02T06:37:54.726Z,18.30
2019-02-02T06:40:27.407Z,17.80
2019-02-02T06:43:00.047Z,16.93
2019-02-02T06:45:34.340Z,19.17
2019-02-02T06:48:06.994Z,19.47
2019-02-02T06:50:39.645Z,17.67
2019-02-02T06:53:12.673Z,17.10
2019-02-02T06:55:45.662Z,19.20
2019-02-02T06:58:18.309Z,18.63
2019-02-02T07:00:50.958Z,19.10
2019-02-02T07:03:23.630Z,18.73
2019-02-02T07:05:56.271Z,19.67
2019-02-02T07:08:28.964Z,20.13
2019-02-02T07:11:01.623Z,20.53
2019-02-02T07:13:36.137Z,20.33
2019-02-02T07:16:08.651Z,19.80
2019-02-02T07:18:41.605Z,19.70
2019-02-02T07:21:14.236Z,19.90
2019-02-02T07:23:46.888Z,21.30
2019-02-02T07:26:19.854Z,21.13
2019-02-02T07:28:52.494Z,21.37
2019-02-02T07:31:25.130Z,20.60
2019-02-02T07:33:57.786Z,18.50
2019-02-02T07:36:30.775Z,19.23
2019-02-02T07:39:04.903Z,20.40
2019-02-02T07:41:37.822Z,20.93
2019-02-02T07:44:10.484Z,19.47
2019-02-02T07:46:43.138Z,18.90
2019-02-02T07:49:16.159Z,18.87
2019-02-02T07:51:48.810Z,19.77
2019-02-02T07:54:21.756Z,17.87
2019-02-02T07:56:54.478Z,19.77
2019-02-02T07:59:27.418Z,17.57
2019-02-02T08:02:00.408Z,17.57
2019-02-02T08:04:33.088Z,18.10
2019-02-02T08:07:05.776Z,19.47
2019-02-02T08:09:38.474Z,19.37
2019-02-02T08:12:11.128Z,18.47
2019-02-02T08:14:44.123Z,19.57
2019-02-02T08:17:16.798Z,17.73
2019-02-02T08:19:49.460Z,18.40
2019-02-02T08:22:22.103Z,18.80
2019-02-02T08:24:54.758Z,19.13
2019-02-02T08:27:27.435Z,18.37
2019-02-02T08:30:00.406Z,18.07
2019-02-02T08:32:33.131Z,18.10
2019-02-02T08:35:05.972Z,16.60
2019-02-02T08:37:38.645Z,18.83
2019-02-02T08:40:11.942Z,18.03
2019-02-02T08:42:44.660Z,17.90
2019-02-02T08:45:17.335Z,18.83
2019-02-02T08:47:49.968Z,18.70
2019-02-02T08:50:28.154Z,19.23
2019-02-02T08:53:00.807Z,19.00
2019-02-02T08:55:33.589Z,19.10
2019-02-02T08:58:06.343Z,20.67
2019-02-02T09:00:39.409Z,20.37
2019-02-02T09:03:12.095Z,19.63
2019-02-02T09:05:44.856Z,19.27
2019-02-02T09:08:17.859Z,21.50
2019-02-02T09:10:50.539Z,20.53
2019-02-02T09:13:23.194Z,21.83
2019-02-02T09:15:55.907Z,20.97
2019-02-02T09:18:28.579Z,20.97
2019-02-02T09:21:01.290Z,20.70
2019-02-02T09:23:34.547Z,20.60
2019-02-02T09:26:07.210Z,22.17
2019-02-02T09:28:39.928Z,22.43
2019-02-02T09:31:16.015Z,23.43
2019-02-02T09:33:46.982Z,22.37
2019-02-02T09:36:19.726Z,22.73
2019-02-02T09:38:52.379Z,23.77
2019-02-02T09:44:40.099Z,22.37
2019-02-02T09:47:13.136Z,23.50
2019-02-02T09:49:46.096Z,23.30
2019-02-02T09:52:18.914Z,23.63
2019-02-02T09:54:51.608Z,22.07
2019-02-02T09:57:27.860Z,23.00
2019-02-02T09:59:58.946Z,22.13
2019-02-02T10:02:31.615Z,23.07
2019-02-02T10:05:04.655Z,23.23
2019-02-02T10:07:37.589Z,23.13
2019-02-02T10:10:15.971Z,23.73
2019-02-02T10:12:48.634Z,23.40
2019-02-02T10:15:21.318Z,24.90
2019-02-02T10:17:53.988Z,23.10
2019-02-02T10:20:27.798Z,23.67
2019-02-02T10:23:00.458Z,22.67
2019-02-02T10:25:33.419Z,22.43
2019-02-02T10:28:06.128Z,24.17
2019-02-02T10:30:40.856Z,23.93
2019-02-02T10:33:14.874Z,22.80
2019-02-02T10:35:47.589Z,23.80
2019-02-02T10:38:20.270Z,24.13
2019-02-02T10:40:52.967Z,21.77
2019-02-02T10:43:25.618Z,23.93
2019-02-02T10:45:58.294Z,25.57
2019-02-02T10:48:30.941Z,25.60
2019-02-02T10:51:03.600Z,24.40
2019-02-02T10:53:36.353Z,22.23
2019-02-02T10:56:09.091Z,21.00
2019-02-02T10:58:41.832Z,22.13
2019-02-02T11:01:14.503Z,23.43
2019-02-02T11:03:49.402Z,23.83
2019-02-02T11:06:22.094Z,25.50
2019-02-02T11:08:54.722Z,26.90
2019-02-02T11:11:27.429Z,28.40
2019-02-02T11:14:00.713Z,28.53
2019-02-02T11:16:33.369Z,26.43
2019-02-02T11:19:06.217Z,26.67
2019-02-02T11:21:38.916Z,27.90
2019-02-02T11:24:11.594Z,28.27
2019-02-02T11:26:44.377Z,28.47
2019-02-02T11:29:17.296Z,27.80
2019-02-02T11:31:49.984Z,27.80
2019-02-02T11:34:22.688Z,27.13
2019-02-02T11:36:55.369Z,29.43
2019-02-02T11:39:28.037Z,28.40
2019-02-02T11:42:00.700Z,26.50
2019-02-02T11:44:33.356Z,28.00
2019-02-02T11:47:06.415Z,28.27
2019-02-02T11:49:39.167Z,27.13
2019-02-02T11:52:11.846Z,24.87
2019-02-02T11:54:44.667Z,27.27
2019-02-02T11:57:17.400Z,25.23
2019-02-02T11:59:50.070Z,24.97
2019-02-02T12:02:22.783Z,24.03
2019-02-02T12:04:55.748Z,24.33
2019-02-02T12:07:28.427Z,23.47
2019-02-02T12:10:01.101Z,24.00
2019-02-02T12:12:33.770Z,24.87
2019-02-02T12:15:08.775Z,26.67
2019-02-02T12:17:41.474Z,24.50
2019-02-02T12:20:15.464Z,25.43
2019-02-02T12:22:48.142Z,22.10
2019-02-02T12:25:20.859Z,21.90
2019-02-02T12:27:53.870Z,21.63
2019-02-02T12:30:28.754Z,21.70
2019-02-02T12:33:03.408Z,22.37
2019-02-02T12:35:35.806Z,19.97
2019-02-02T12:38:08.494Z,20.33
2019-02-02T12:40:41.156Z,20.33
2019-02-02T12:43:13.838Z,21.43
2019-02-02T12:45:49.428Z,20.10
2019-02-02T12:48:22.286Z,20.17
2019-02-02T12:50:54.981Z,20.20
2019-02-02T12:53:27.911Z,22.23
2019-02-02T12:56:00.607Z,23.77
2019-02-02T12:58:33.343Z,26.33
2019-02-02T13:01:06.040Z,27.97
2019-02-02T13:03:38.738Z,29.33
2019-02-02T13:06:11.416Z,30.53
2019-02-02T13:08:44.221Z,31.87
2019-02-02T13:11:17.192Z,33.23
2019-02-02T13:13:49.866Z,34.60
2019-02-02T13:16:22.662Z,33.30
2019-02-02T13:18:55.687Z,34.43
2019-02-02T13:21:28.463Z,35.17
2019-02-02T13:24:01.402Z,34.63
2019-02-02T13:26:34.062Z,34.63
2019-02-02T13:29:06.752Z,37.57
2019-02-02T13:31:39.477Z,36.37
2019-02-02T13:34:12.155Z,39.97
2019-02-02T13:36:44.819Z,37.93
2019-02-02T13:39:17.779Z,37.33
2019-02-02T13:41:51.274Z,37.57
2019-02-02T13:44:23.977Z,37.17
2019-02-02T13:46:56.646Z,39.37
2019-02-02T13:49:29.315Z,38.83
2019-02-02T13:52:01.973Z,38.67
2019-02-02T13:54:34.646Z,37.40
2019-02-02T13:57:07.599Z,39.53
2019-02-02T13:59:40.280Z,36.27
2019-02-02T14:02:12.949Z,35.63
2019-02-02T14:04:45.620Z,36.67
2019-02-02T14:07:18.651Z,39.10
2019-02-02T14:09:51.388Z,37.43
2019-02-02T14:12:24.079Z,41.50
2019-02-02T14:14:56.748Z,39.57
2019-02-02T14:17:29.410Z,39.37
2019-02-02T14:20:02.394Z,39.50
2019-02-02T14:22:35.062Z,39.87
2019-02-02T14:25:08.138Z,40.27
2019-02-02T14:27:41.126Z,38.37
2019-02-02T14:30:19.211Z,38.80
2019-02-02T14:32:54.589Z,39.63
2019-02-02T14:35:26.900Z,38.37
2019-02-02T14:37:59.590Z,40.73
2019-02-02T14:40:32.280Z,38.97
2019-02-02T14:43:04.950Z,39.43
2019-02-02T14:45:37.987Z,39.20
2019-02-02T14:48:10.674Z,41.73
2019-02-02T14:50:43.402Z,40.13
2019-02-02T14:53:16.818Z,42.00
2019-02-02T14:55:49.757Z,41.57
2019-02-02T14:58:22.449Z,39.97
2019-02-02T15:00:55.117Z,41.00
2019-02-02T15:03:27.773Z,41.33
2019-02-02T15:06:00.426Z,40.97
2019-02-02T15:08:33.111Z,41.70
2019-02-02T15:11:05.808Z,41.57
2019-02-02T15:13:38.475Z,41.60
2019-02-02T15:16:11.467Z,40.17
2019-02-02T15:18:44.217Z,40.07
2019-02-02T15:21:16.931Z,42.07
2019-02-02T15:23:49.607Z,42.00
2019-02-02T15:26:22.559Z,40.97
2019-02-02T15:28:55.255Z,41.43
2019-02-02T15:31:27.937Z,41.47
2019-02-02T15:34:00.622Z,41.00
2019-02-02T15:36:33.290Z,40.17
2019-02-02T15:39:08.289Z,40.23
2019-02-02T15:41:52.369Z,39.97
2019-02-02T15:44:15.631Z,40.30
2019-02-02T15:46:49.355Z,40.67
2019-02-02T15:49:22.218Z,41.33
2019-02-02T15:51:54.887Z,42.30
2019-02-02T15:54:27.614Z,38.77
2019-02-02T15:57:00.275Z,40.43
2019-02-02T15:59:32.962Z,40.70
2019-02-02T16:02:05.647Z,41.10
2019-02-02T16:04:38.315Z,40.93
2019-02-02T16:07:11.273Z,42.10
2019-02-02T16:09:43.994Z,42.93
2019-02-02T16:12:16.654Z,41.47
2019-02-02T16:14:49.330Z,42.37
2019-02-02T16:17:22.003Z,41.43
2019-02-02T16:19:55.579Z,43.07
2019-02-02T16:22:28.250Z,43.37
2019-02-02T16:25:01.260Z,43.17
2019-02-02T16:27:33.926Z,42.57
2019-02-02T16:30:08.837Z,45.53
2019-02-02T16:32:41.507Z,45.77
2019-02-02T16:35:14.448Z,42.37
2019-02-02T16:37:47.132Z,43.13
2019-02-02T16:40:21.692Z,44.70
2019-02-02T16:42:54.371Z,46.90
2019-02-02T16:45:28.580Z,45.53
2019-02-02T16:48:01.249Z,44.33
2019-02-02T16:50:33.906Z,44.30
2019-02-02T16:53:06.562Z,44.67
2019-02-02T16:55:39.554Z,46.40
2019-02-02T16:58:12.232Z,43.90
2019-02-02T17:00:44.917Z,45.93
2019-02-02T17:03:17.585Z,46.67
2019-02-02T17:05:50.254Z,45.60
2019-02-02T17:08:22.934Z,46.67
2019-02-02T17:10:55.628Z,47.57
2019-02-02T17:13:28.279Z,46.50
2019-02-02T17:16:00.962Z,46.37
2019-02-02T17:18:33.621Z,46.10
2019-02-02T17:21:06.354Z,46.43
2019-02-02T17:23:39.098Z,48.73
2019-02-02T17:26:11.840Z,48.43
2019-02-02T17:28:44.510Z,48.20
2019-02-02T17:31:17.443Z,49.60
2019-02-02T17:33:50.111Z,51.43
2019-02-02T17:36:22.838Z,50.00
2019-02-02T17:38:55.506Z,48.87
2019-02-02T17:41:28.195Z,50.87
2019-02-02T17:44:00.850Z,51.67
2019-02-02T17:46:33.557Z,51.23
2019-02-02T17:49:06.566Z,51.33
2019-02-02T17:51:39.919Z,53.77
2019-02-02T17:54:12.578Z,52.33
2019-02-02T17:56:45.270Z,50.73
2019-02-02T17:59:18.046Z,52.20
2019-02-02T18:01:51.142Z,51.10
2019-02-02T18:04:26.456Z,52.63
2019-02-02T18:06:58.916Z,51.50
2019-02-02T18:09:31.615Z,54.80
2019-02-02T18:12:04.298Z,50.27
2019-02-02T18:14:36.969Z,50.00
2019-02-02T18:17:09.713Z,53.80
2019-02-02T18:19:42.379Z,51.20
2019-02-02T18:22:15.044Z,52.53
2019-02-02T18:24:47.707Z,50.43
2019-02-02T18:27:20.433Z,50.10
2019-02-02T18:29:53.110Z,49.47
2019-02-02T18:32:26.570Z,49.70
2019-02-02T18:34:59.594Z,50.37
2019-02-02T18:37:32.262Z,49.73
2019-02-02T18:40:05.146Z,50.17
2019-02-02T18:42:37.836Z,50.40
2019-02-02T18:45:15.988Z,48.10
2019-02-02T18:47:49.282Z,50.20
2019-02-02T18:50:22.033Z,49.53
2019-02-02T18:52:54.889Z,49.50
2019-02-02T18:55:30.779Z,45.57
2019-02-02T18:58:03.475Z,47.77
2019-02-02T19:00:36.454Z,49.27
2019-02-02T19:03:09.186Z,45.30
2019-02-02T19:05:41.843Z,45.27
2019-02-02T19:08:14.874Z,44.13
2019-02-02T19:10:47.803Z,44.27
2019-02-02T19:13:20.711Z,44.40
2019-02-02T19:15:53.433Z,45.87
2019-02-02T19:18:26.086Z,43.20
2019-02-02T19:20:59.031Z,43.53
2019-02-02T19:23:31.714Z,42.77
2019-02-02T19:26:04.383Z,43.07
2019-02-02T19:28:39.886Z,41.37
2019-02-02T19:31:12.050Z,41.63
2019-02-02T19:33:44.766Z,43.33
2019-02-02T19:36:17.471Z,41.57
2019-02-02T19:38:50.174Z,43.33
2019-02-02T19:41:22.889Z,43.77
2019-02-02T19:43:55.551Z,44.13
2019-02-02T19:46:28.219Z,43.77
2019-02-02T19:49:00.909Z,44.10
2019-02-02T19:51:33.714Z,43.40
2019-02-02T19:54:07.734Z,44.53
2019-02-02T19:56:40.598Z,42.57
2019-02-02T19:59:13.260Z,44.20
2019-02-02T20:01:45.942Z,44.63
2019-02-02T20:04:18.942Z,44.50
2019-02-02T20:06:51.958Z,44.90
2019-02-02T20:09:24.644Z,44.30
2019-02-02T20:11:57.395Z,43.10
2019-02-02T20:14:30.059Z,44.73
2019-02-02T20:17:03.058Z,45.30
2019-02-02T20:19:35.738Z,46.90
2019-02-02T20:22:08.422Z,45.93
2019-02-02T20:24:41.143Z,48.00
2019-02-02T20:27:13.816Z,50.10
2019-02-02T20:29:46.478Z,48.67
2019-02-02T20:32:19.462Z,50.50
2019-02-02T20:34:52.133Z,51.07
2019-02-02T20:37:24.871Z,50.20
2019-02-02T20:39:57.546Z,52.17
2019-02-02T20:42:30.233Z,51.40
2019-02-02T20:45:03.105Z,55.87
2019-02-02T20:47:35.803Z,54.43
2019-02-02T20:50:11.323Z,55.80
2019-02-02T20:52:47.594Z,54.97
2019-02-02T20:55:23.840Z,53.87
2019-02-02T20:57:56.800Z,54.20
2019-02-02T21:00:29.880Z,56.57
2019-02-02T21:03:02.635Z,55.77
2019-02-02T21:05:35.295Z,55.93
2019-02-02T21:08:08.451Z,55.83
2019-02-02T21:10:41.126Z,55.13
2019-02-02T21:13:13.807Z,55.70
2019-02-02T21:15:46.481Z,57.00
2019-02-02T21:18:19.194Z,56.10
2019-02-02T21:20:51.855Z,57.87
2019-02-02T21:23:24.803Z,57.50
2019-02-02T21:25:57.470Z,58.90
2019-02-02T21:28:30.182Z,55.87
2019-02-02T21:31:04.121Z,59.10
2019-02-02T21:33:36.806Z,59.77
2019-02-02T21:36:09.813Z,59.67
2019-02-02T21:38:42.486Z,59.17
2019-02-02T21:41:18.300Z,61.17
2019-02-02T21:43:49.907Z,61.13
2019-02-02T21:46:22.571Z,60.70
2019-02-02T21:48:55.251Z,57.87
2019-02-02T21:51:28.375Z,57.13
2019-02-02T21:54:01.086Z,56.43
2019-02-02T21:56:33.743Z,58.40
2019-02-02T21:59:06.406Z,57.80
2019-02-02T22:01:39.363Z,58.30
2019-02-02T22:04:12.039Z,56.03
2019-02-02T22:06:44.702Z,57.03
2019-02-02T22:09:17.375Z,56.83
2019-02-02T22:11:50.583Z,55.20
2019-02-02T22:14:23.262Z,55.57
2019-02-02T22:16:55.949Z,58.20
2019-02-02T22:19:28.635Z,59.97
2019-02-02T22:22:01.299Z,58.13
2019-02-02T22:24:33.969Z,57.63
2019-02-02T22:27:06.645Z,58.83
2019-02-02T22:29:39.343Z,58.20
2019-02-02T22:32:12.012Z,57.73
2019-02-02T22:34:44.707Z,55.77
2019-02-02T22:37:17.627Z,57.33
2019-02-02T22:39:50.579Z,54.70
2019-02-02T22:42:23.983Z,54.63
2019-02-02T22:44:56.672Z,54.77
2019-02-02T22:47:29.663Z,54.13
2019-02-02T22:50:02.405Z,51.47
2019-02-02T22:52:35.067Z,49.40
2019-02-02T22:55:08.784Z,49.80
2019-02-02T22:57:41.434Z,48.90
2019-02-02T23:00:38.562Z,47.03
2019-02-02T23:03:14.259Z,43.07
2019-02-02T23:06:05.966Z,44.47
2019-02-02T23:09:35.314Z,43.33
2019-02-02T23:12:39.134Z,43.40
2019-02-02T23:15:54.319Z,42.67
2019-02-02T23:18:26.987Z,42.30
2019-02-02T23:20:59.733Z,45.10
2019-02-02T23:23:32.415Z,44.60
2019-02-02T23:26:05.453Z,46.40
2019-02-02T23:28:38.223Z,44.83
2019-02-02T23:31:10.883Z,46.90
2019-02-02T23:33:43.981Z,46.73
2019-02-02T23:36:16.670Z,47.77
2019-02-02T23:38:49.351Z,44.60
2019-02-02T23:41:22.435Z,45.63
2019-02-02T23:43:55.114Z,46.07
2019-02-02T23:46:28.070Z,44.47
2019-02-02T23:49:00.767Z,46.23
2019-02-02T23:51:33.426Z,46.97
2019-02-02T23:54:06.112Z,48.73
2019-02-02T23:56:38.839Z,48.97
2019-02-02T23:59:11.507Z,48.03
